X  Schlie├čen METAR Luftfahrt Wetterdaten        EDDE Erfurt
Temperatur
21°C Temperatur
17°C Taupunkt
78% Feuchtigkeit



Wind
13 km/h
8 MPS
4 M/S
7 KTS



190°
S
Aktuelle Wetterlage

Mostly Sunny Meist sonnig
Luftdruck 1011 (hPa) - 29.85 (inHg)
Sichtweite 7 (Meile) - 11 (Km)
Flughafen
Flughafen Code EDDE

Position : Erfurt
Entfernung: 25 (Km)

Metar:
METAR EDDE 261850Z 19007KT CAVOK 21/17 Q1012 NOSIG

Zeit: 26.07.2021 20:50 CEST